Impacts METAR Board INFO
IDs:

KSEA - Seattle-Tacoma Intl, WA, US

Updated at: 1523 UTC 16 Jan 2018
Potential Impact None Slight Moderate High
Time16/03Z 16/04Z 16/05Z 16/06Z 16/07Z 16/08Z 16/09Z 16/10Z 16/11Z 16/12Z 16/13Z 16/14Z 16/15Z
VIS10 10 10 10 10 6 10 7 7 10 5 10 10
CIG110 110 80 70 60 46 55 55 49 38 10 28 6
CoverOVCOVCOVCOVCOVCOVCOVCOVCOVCOVCOVCOVCOVC
FltCatVFRVFRVFRVFRVFRVFRVFRVFRVFRVFRMVFRMVFRIFR
WX-------RA-RA-RA BR-RA-RA-----RA BR-RA--
WDir13019011002502702101501400220220150
WSpd19 7 8 3 3 3 4 11 11 0 6 3 9
WGst25 -- -- -- -- -- -- -- -- -- -- -- --
Raw hourly METARs
KSEA 160253Z 13019G25KT 10SM BKN110 OVC200 14/02 A2987 RMK AO2 SLP122 T01440022 55002
KSEA 160353Z 19007KT 10SM BKN110 OVC200 12/06 A2991 RMK AO2 SLP134 T01170056
KSEA 160453Z 11008KT 10SM FEW065 OVC080 12/06 A2992 RMK AO2 RAB17E44 SLP138 P0002 T01170056
KSEA 160553Z VRB03KT 10SM -RA OVC070 11/07 A2995 RMK AO2 RAB0456 SLP148 P0002 60004 T01060067 10161 20106 51026
KSEA 160653Z 25003KT 10SM -RA OVC060 11/07 A2998 RMK AO2 PRESRR SLP159 P0001 T01060067
KSEA 160753Z 27003KT 6SM -RA BR OVC046 10/08 A3002 RMK AO2 SLP173 P0001 T01000078 401780050
KSEA 160853Z 21004KT 10SM -RA FEW045 OVC055 10/08 A3003 RMK AO2 SLP175 P0004 60006 T01000083 51027
KSEA 160953Z 15011KT 7SM -RA OVC055 09/08 A3004 RMK AO2 SLP179 P0005 T00940083
KSEA 161053Z 14011KT 7SM BKN049 BKN080 OVC095 09/09 A3005 RMK AO2 RAE39 SLP182 P0003 T00940089
KSEA 161153Z 00000KT 10SM FEW007 FEW028 OVC038 09/08 A3007 RMK AO2 SLP189 60014 70018 T00940083 10117 20094 53015
KSEA 161257Z 22006KT 5SM -RA BR FEW003 BKN010 OVC048 09/08 A3009 RMK AO2 P0001 T00940083
KSEA 161359Z 22003KT 10SM -RA SCT005 BKN028 OVC041 09/08 A3010 RMK AO2 P0000 T00890083
KSEA 161453Z 15009KT 10SM BKN006 BKN034 OVC050 09/08 A3011 RMK AO2 RAE26 SLP202 P0000 60006 T00890083 51007